sensor_id;sensor_type;location;lat;lon;timestamp;P1;durP1;ratioP1;P2;durP2;ratioP2
28958;SDS011;16066;0.000;0.000;2023-08-08T05:31:14;6.40;;;3.20;;
28958;SDS011;16066;0.000;0.000;2023-08-08T05:33:40;6.30;;;3.00;;
28958;SDS011;16066;0.000;0.000;2023-08-08T05:36:06;6.10;;;2.97;;
28958;SDS011;16066;0.000;0.000;2023-08-08T05:38:31;5.93;;;2.90;;
28958;SDS011;16066;0.000;0.000;2023-08-08T05:40:58;3.50;;;2.67;;
28958;SDS011;16066;0.000;0.000;2023-08-08T05:43:23;5.03;;;2.80;;
28958;SDS011;16066;0.000;0.000;2023-08-08T05:45:49;6.80;;;3.33;;
28958;SDS011;16066;0.000;0.000;2023-08-08T05:48:14;5.73;;;3.00;;
28958;SDS011;16066;0.000;0.000;2023-08-08T05:50:40;11.30;;;3.40;;
28958;SDS011;16066;0.000;0.000;2023-08-08T05:53:06;5.30;;;2.97;;
28958;SDS011;16066;0.000;0.000;2023-08-08T05:55:32;4.43;;;2.73;;
28958;SDS011;16066;0.000;0.000;2023-08-08T05:57:58;4.03;;;2.70;;
28958;SDS011;16066;0.000;0.000;2023-08-08T06:00:23;5.67;;;2.60;;
28958;SDS011;16066;0.000;0.000;2023-08-08T06:02:49;7.90;;;3.20;;
28958;SDS011;16066;0.000;0.000;2023-08-08T06:05:16;13.10;;;3.33;;
28958;SDS011;16066;0.000;0.000;2023-08-08T06:07:42;6.63;;;3.17;;
28958;SDS011;16066;0.000;0.000;2023-08-08T06:10:08;7.83;;;3.20;;
28958;SDS011;16066;0.000;0.000;2023-08-08T06:12:34;4.47;;;3.13;;
28958;SDS011;16066;0.000;0.000;2023-08-08T06:15:00;5.67;;;2.73;;
28958;SDS011;16066;0.000;0.000;2023-08-08T06:17:25;13.03;;;3.77;;
28958;SDS011;16066;0.000;0.000;2023-08-08T06:19:51;5.97;;;2.63;;
28958;SDS011;16066;0.000;0.000;2023-08-08T06:22:16;5.90;;;2.90;;
28958;SDS011;16066;0.000;0.000;2023-08-08T06:24:42;4.77;;;3.00;;
28958;SDS011;16066;0.000;0.000;2023-08-08T06:27:07;5.57;;;3.00;;
28958;SDS011;16066;0.000;0.000;2023-08-08T06:29:33;11.37;;;2.93;;
28958;SDS011;16066;0.000;0.000;2023-08-08T06:31:59;6.13;;;2.60;;
28958;SDS011;16066;0.000;0.000;2023-08-08T06:34:24;6.80;;;3.43;;
28958;SDS011;16066;0.000;0.000;2023-08-08T06:36:50;5.13;;;3.03;;
28958;SDS011;16066;0.000;0.000;2023-08-08T06:39:15;4.13;;;3.03;;
28958;SDS011;16066;0.000;0.000;2023-08-08T06:41:41;4.03;;;2.60;;
28958;SDS011;16066;0.000;0.000;2023-08-08T06:44:06;7.27;;;3.60;;
28958;SDS011;16066;0.000;0.000;2023-08-08T06:46:32;5.27;;;3.37;;
28958;SDS011;16066;0.000;0.000;2023-08-08T06:48:58;7.60;;;3.43;;
28958;SDS011;16066;0.000;0.000;2023-08-08T06:51:24;10.00;;;3.30;;
28958;SDS011;16066;0.000;0.000;2023-08-08T06:53:50;4.93;;;3.10;;
28958;SDS011;16066;0.000;0.000;2023-08-08T06:56:16;6.60;;;3.10;;
28958;SDS011;16066;0.000;0.000;2023-08-08T06:58:42;5.17;;;3.20;;
28958;SDS011;16066;0.000;0.000;2023-08-08T07:01:08;6.47;;;3.37;;
28958;SDS011;16066;0.000;0.000;2023-08-08T07:03:34;6.40;;;3.53;;
28958;SDS011;16066;0.000;0.000;2023-08-08T07:06:00;6.37;;;3.83;;
28958;SDS011;16066;0.000;0.000;2023-08-08T07:08:26;6.90;;;3.73;;
28958;SDS011;16066;0.000;0.000;2023-08-08T07:10:51;7.97;;;3.57;;
28958;SDS011;16066;0.000;0.000;2023-08-08T07:13:17;7.33;;;4.10;;
28958;SDS011;16066;0.000;0.000;2023-08-08T07:15:42;8.23;;;3.60;;
28958;SDS011;16066;0.000;0.000;2023-08-08T07:18:08;8.37;;;3.03;;
28958;SDS011;16066;0.000;0.000;2023-08-08T07:20:34;8.33;;;3.60;;
28958;SDS011;16066;0.000;0.000;2023-08-08T07:22:59;6.17;;;3.20;;
28958;SDS011;16066;0.000;0.000;2023-08-08T07:25:26;8.63;;;2.93;;
28958;SDS011;16066;0.000;0.000;2023-08-08T07:27:52;6.77;;;3.30;;
28958;SDS011;16066;0.000;0.000;2023-08-08T07:30:17;9.03;;;3.50;;
28958;SDS011;16066;0.000;0.000;2023-08-08T07:32:43;4.83;;;2.80;;
28958;SDS011;16066;0.000;0.000;2023-08-08T07:35:08;6.57;;;3.50;;
28958;SDS011;16066;0.000;0.000;2023-08-08T07:37:35;4.33;;;3.00;;
28958;SDS011;16066;0.000;0.000;2023-08-08T07:40:01;6.03;;;2.93;;
28958;SDS011;16066;0.000;0.000;2023-08-08T07:42:28;6.37;;;3.50;;
28958;SDS011;16066;0.000;0.000;2023-08-08T07:44:54;6.03;;;3.30;;
28958;SDS011;16066;0.000;0.000;2023-08-08T07:47:20;4.60;;;3.00;;
28958;SDS011;16066;0.000;0.000;2023-08-08T07:49:45;6.60;;;3.43;;
28958;SDS011;16066;0.000;0.000;2023-08-08T07:52:11;8.50;;;3.13;;
28958;SDS011;16066;0.000;0.000;2023-08-08T07:54:36;3.47;;;2.67;;
28958;SDS011;16066;0.000;0.000;2023-08-08T07:57:02;8.80;;;3.43;;
28958;SDS011;16066;0.000;0.000;2023-08-08T07:59:29;12.27;;;3.63;;
28958;SDS011;16066;0.000;0.000;2023-08-08T08:01:54;7.60;;;3.13;;
28958;SDS011;16066;0.000;0.000;2023-08-08T08:04:20;8.20;;;4.10;;
28958;SDS011;16066;0.000;0.000;2023-08-08T08:06:45;4.63;;;3.00;;
28958;SDS011;16066;0.000;0.000;2023-08-08T08:09:11;7.67;;;4.07;;
28958;SDS011;16066;0.000;0.000;2023-08-08T08:11:36;5.33;;;2.83;;
28958;SDS011;16066;0.000;0.000;2023-08-08T08:14:02;6.23;;;3.20;;
28958;SDS011;16066;0.000;0.000;2023-08-08T08:16:28;12.33;;;3.90;;
28958;SDS011;16066;0.000;0.000;2023-08-08T08:18:53;8.03;;;3.23;;
28958;SDS011;16066;0.000;0.000;2023-08-08T08:21:19;6.83;;;3.00;;
28958;SDS011;16066;0.000;0.000;2023-08-08T08:23:45;5.33;;;3.17;;
28958;SDS011;16066;0.000;0.000;2023-08-08T08:26:11;5.40;;;3.40;;
28958;SDS011;16066;0.000;0.000;2023-08-08T08:28:37;13.93;;;4.27;;
28958;SDS011;16066;0.000;0.000;2023-08-08T08:31:05;8.47;;;3.43;;
28958;SDS011;16066;0.000;0.000;2023-08-08T08:33:31;28.33;;;4.10;;
28958;SDS011;16066;0.000;0.000;2023-08-08T08:35:57;7.20;;;3.60;;
28958;SDS011;16066;0.000;0.000;2023-08-08T08:38:22;10.67;;;3.00;;
28958;SDS011;16066;0.000;0.000;2023-08-08T08:40:48;8.83;;;3.20;;
28958;SDS011;16066;0.000;0.000;2023-08-08T08:43:14;5.87;;;3.40;;
28958;SDS011;16066;0.000;0.000;2023-08-08T08:45:42;5.53;;;2.83;;
28958;SDS011;16066;0.000;0.000;2023-08-08T08:48:11;8.90;;;3.53;;
28958;SDS011;16066;0.000;0.000;2023-08-08T08:50:39;7.37;;;2.93;;
28958;SDS011;16066;0.000;0.000;2023-08-08T08:53:05;5.20;;;3.37;;
28958;SDS011;16066;0.000;0.000;2023-08-08T08:55:31;5.97;;;2.93;;
28958;SDS011;16066;0.000;0.000;2023-08-08T08:57:57;6.83;;;3.47;;
28958;SDS011;16066;0.000;0.000;2023-08-08T09:00:23;6.53;;;2.80;;
28958;SDS011;16066;0.000;0.000;2023-08-08T09:02:50;5.17;;;3.60;;
28958;SDS011;16066;0.000;0.000;2023-08-08T09:05:17;5.93;;;2.67;;
28958;SDS011;16066;0.000;0.000;2023-08-08T09:07:46;5.83;;;3.23;;
28958;SDS011;16066;0.000;0.000;2023-08-08T09:10:12;6.13;;;3.20;;
28958;SDS011;16066;0.000;0.000;2023-08-08T09:12:40;4.80;;;3.40;;
28958;SDS011;16066;0.000;0.000;2023-08-08T09:15:06;7.50;;;2.80;;
28958;SDS011;16066;0.000;0.000;2023-08-08T09:17:32;9.37;;;2.70;;
28958;SDS011;16066;0.000;0.000;2023-08-08T09:19:58;6.80;;;2.57;;
28958;SDS011;16066;0.000;0.000;2023-08-08T09:22:24;5.50;;;2.90;;
28958;SDS011;16066;0.000;0.000;2023-08-08T09:24:50;5.70;;;2.90;;
28958;SDS011;16066;0.000;0.000;2023-08-08T09:27:15;5.00;;;3.30;;
28958;SDS011;16066;0.000;0.000;2023-08-08T09:29:41;4.90;;;2.77;;
28958;SDS011;16066;0.000;0.000;2023-08-08T09:32:07;8.47;;;3.00;;
28958;SDS011;16066;0.000;0.000;2023-08-08T09:34:33;6.13;;;2.87;;
28958;SDS011;16066;0.000;0.000;2023-08-08T09:36:59;5.90;;;2.10;;
28958;SDS011;16066;0.000;0.000;2023-08-08T09:39:25;11.97;;;2.73;;
28958;SDS011;16066;0.000;0.000;2023-08-08T09:41:51;7.10;;;2.53;;
28958;SDS011;16066;0.000;0.000;2023-08-08T09:44:17;7.10;;;3.40;;
28958;SDS011;16066;0.000;0.000;2023-08-08T09:46:43;6.97;;;2.40;;
28958;SDS011;16066;0.000;0.000;2023-08-08T09:49:10;6.40;;;3.17;;
28958;SDS011;16066;0.000;0.000;2023-08-08T09:51:36;4.23;;;2.60;;
28958;SDS011;16066;0.000;0.000;2023-08-08T09:54:02;4.93;;;2.50;;
28958;SDS011;16066;0.000;0.000;2023-08-08T09:56:31;5.60;;;2.60;;
28958;SDS011;16066;0.000;0.000;2023-08-08T09:58:58;6.03;;;2.53;;
28958;SDS011;16066;0.000;0.000;2023-08-08T10:01:26;6.17;;;2.40;;
28958;SDS011;16066;0.000;0.000;2023-08-08T10:03:52;5.07;;;2.90;;
28958;SDS011;16066;0.000;0.000;2023-08-08T10:06:18;5.40;;;2.80;;
28958;SDS011;16066;0.000;0.000;2023-08-08T10:08:44;10.70;;;2.90;;
28958;SDS011;16066;0.000;0.000;2023-08-08T10:11:10;11.97;;;3.30;;
28958;SDS011;16066;0.000;0.000;2023-08-08T10:13:37;6.87;;;2.80;;
28958;SDS011;16066;0.000;0.000;2023-08-08T10:16:12;10.33;;;3.03;;
28958;SDS011;16066;0.000;0.000;2023-08-08T10:18:40;4.77;;;2.63;;
28958;SDS011;16066;0.000;0.000;2023-08-08T10:21:05;8.23;;;2.87;;
28958;SDS011;16066;0.000;0.000;2023-08-08T10:23:37;5.30;;;2.60;;
28958;SDS011;16066;0.000;0.000;2023-08-08T10:26:05;4.83;;;2.80;;
28958;SDS011;16066;0.000;0.000;2023-08-08T10:28:52;5.73;;;2.90;;
28958;SDS011;16066;0.000;0.000;2023-08-08T10:31:20;9.20;;;2.90;;
28958;SDS011;16066;0.000;0.000;2023-08-08T10:33:46;7.00;;;2.67;;
28958;SDS011;16066;0.000;0.000;2023-08-08T10:36:12;4.13;;;2.40;;
28958;SDS011;16066;0.000;0.000;2023-08-08T10:38:45;5.30;;;2.43;;
28958;SDS011;16066;0.000;0.000;2023-08-08T10:41:19;3.63;;;2.80;;
28958;SDS011;16066;0.000;0.000;2023-08-08T10:43:49;5.57;;;3.00;;
28958;SDS011;16066;0.000;0.000;2023-08-08T10:46:39;4.47;;;2.27;;
28958;SDS011;16066;0.000;0.000;2023-08-08T10:49:05;3.93;;;2.50;;
28958;SDS011;16066;0.000;0.000;2023-08-08T10:51:38;6.37;;;2.73;;
28958;SDS011;16066;0.000;0.000;2023-08-08T10:54:09;8.73;;;3.33;;
28958;SDS011;16066;0.000;0.000;2023-08-08T10:56:47;5.50;;;2.80;;
28958;SDS011;16066;0.000;0.000;2023-08-08T10:59:21;6.47;;;2.57;;
28958;SDS011;16066;0.000;0.000;2023-08-08T11:01:49;6.27;;;2.83;;
28958;SDS011;16066;0.000;0.000;2023-08-08T11:04:18;3.60;;;2.60;;
28958;SDS011;16066;0.000;0.000;2023-08-08T11:06:45;6.03;;;2.50;;
28958;SDS011;16066;0.000;0.000;2023-08-08T11:09:12;5.13;;;2.67;;
28958;SDS011;16066;0.000;0.000;2023-08-08T11:11:39;6.90;;;2.97;;
28958;SDS011;16066;0.000;0.000;2023-08-08T11:14:15;4.00;;;2.50;;
28958;SDS011;16066;0.000;0.000;2023-08-08T11:16:43;4.97;;;2.60;;
28958;SDS011;16066;0.000;0.000;2023-08-08T11:19:10;4.03;;;2.50;;
28958;SDS011;16066;0.000;0.000;2023-08-08T11:21:41;5.93;;;3.00;;
28958;SDS011;16066;0.000;0.000;2023-08-08T11:24:09;6.33;;;2.47;;
28958;SDS011;16066;0.000;0.000;2023-08-08T11:26:35;3.00;;;2.33;;
28958;SDS011;16066;0.000;0.000;2023-08-08T11:29:03;8.73;;;2.90;;
28958;SDS011;16066;0.000;0.000;2023-08-08T11:31:35;4.50;;;2.50;;
28958;SDS011;16066;0.000;0.000;2023-08-08T11:34:01;5.50;;;2.93;;
28958;SDS011;16066;0.000;0.000;2023-08-08T11:36:31;2.97;;;2.10;;
28958;SDS011;16066;0.000;0.000;2023-08-08T11:38:58;6.43;;;2.73;;
28958;SDS011;16066;0.000;0.000;2023-08-08T11:41:26;8.60;;;3.13;;
28958;SDS011;16066;0.000;0.000;2023-08-08T11:43:51;5.27;;;2.50;;
28958;SDS011;16066;0.000;0.000;2023-08-08T11:46:18;8.17;;;2.77;;
28958;SDS011;16066;0.000;0.000;2023-08-08T11:48:47;5.00;;;2.53;;
28958;SDS011;16066;0.000;0.000;2023-08-08T11:51:13;5.00;;;2.47;;
28958;SDS011;16066;0.000;0.000;2023-08-08T11:53:50;10.40;;;3.80;;
28958;SDS011;16066;0.000;0.000;2023-08-08T11:56:17;5.07;;;2.50;;
28958;SDS011;16066;0.000;0.000;2023-08-08T11:58:50;8.33;;;2.93;;
28958;SDS011;16066;0.000;0.000;2023-08-08T12:01:20;6.70;;;3.23;;
28958;SDS011;16066;0.000;0.000;2023-08-08T12:03:49;4.20;;;2.43;;
28958;SDS011;16066;0.000;0.000;2023-08-08T12:06:15;6.30;;;2.90;;
28958;SDS011;16066;0.000;0.000;2023-08-08T12:08:42;4.10;;;2.80;;
28958;SDS011;16066;0.000;0.000;2023-08-08T12:11:08;3.67;;;2.63;;
28958;SDS011;16066;0.000;0.000;2023-08-08T12:13:36;5.03;;;2.77;;
28958;SDS011;16066;0.000;0.000;2023-08-08T12:16:04;4.73;;;2.43;;
28958;SDS011;16066;0.000;0.000;2023-08-08T12:18:34;9.53;;;2.90;;
28958;SDS011;16066;0.000;0.000;2023-08-08T12:21:01;4.40;;;2.63;;
28958;SDS011;16066;0.000;0.000;2023-08-08T12:23:27;4.80;;;2.43;;
28958;SDS011;16066;0.000;0.000;2023-08-08T12:25:53;4.00;;;2.60;;
28958;SDS011;16066;0.000;0.000;2023-08-08T12:28:18;4.87;;;2.77;;
28958;SDS011;16066;0.000;0.000;2023-08-08T12:30:44;5.10;;;2.43;;
28958;SDS011;16066;0.000;0.000;2023-08-08T12:33:10;3.10;;;2.63;;
28958;SDS011;16066;0.000;0.000;2023-08-08T12:35:35;4.60;;;2.57;;
28958;SDS011;16066;0.000;0.000;2023-08-08T12:38:01;7.87;;;3.07;;
28958;SDS011;16066;0.000;0.000;2023-08-08T12:40:28;5.33;;;2.40;;
28958;SDS011;16066;0.000;0.000;2023-08-08T12:42:53;6.03;;;2.20;;
28958;SDS011;16066;0.000;0.000;2023-08-08T12:45:19;3.43;;;2.43;;
28958;SDS011;16066;0.000;0.000;2023-08-08T12:47:44;3.77;;;2.40;;
28958;SDS011;16066;0.000;0.000;2023-08-08T12:50:10;3.93;;;2.63;;
28958;SDS011;16066;0.000;0.000;2023-08-08T12:52:35;5.07;;;2.30;;
28958;SDS011;16066;0.000;0.000;2023-08-08T12:55:03;4.43;;;2.40;;
28958;SDS011;16066;0.000;0.000;2023-08-08T12:57:29;3.60;;;2.30;;
28958;SDS011;16066;0.000;0.000;2023-08-08T12:59:54;7.80;;;2.90;;
28958;SDS011;16066;0.000;0.000;2023-08-08T13:02:20;2.53;;;2.27;;
28958;SDS011;16066;0.000;0.000;2023-08-08T13:04:45;3.67;;;2.43;;
28958;SDS011;16066;0.000;0.000;2023-08-08T13:07:11;4.07;;;1.90;;
28958;SDS011;16066;0.000;0.000;2023-08-08T13:09:37;2.83;;;2.23;;
28958;SDS011;16066;0.000;0.000;2023-08-08T13:12:03;6.67;;;2.67;;
28958;SDS011;16066;0.000;0.000;2023-08-08T13:14:29;3.17;;;2.60;;
28958;SDS011;16066;0.000;0.000;2023-08-08T13:16:54;4.03;;;2.50;;
28958;SDS011;16066;0.000;0.000;2023-08-08T13:19:20;3.23;;;2.50;;
28958;SDS011;16066;0.000;0.000;2023-08-08T13:21:49;4.20;;;3.10;;
28958;SDS011;16066;0.000;0.000;2023-08-08T13:24:16;6.33;;;4.10;;
28958;SDS011;16066;0.000;0.000;2023-08-08T13:26:42;7.60;;;6.10;;
28958;SDS011;16066;0.000;0.000;2023-08-08T13:29:07;10.23;;;6.93;;
28958;SDS011;16066;0.000;0.000;2023-08-08T13:31:33;9.70;;;6.73;;
28958;SDS011;16066;0.000;0.000;2023-08-08T13:33:59;9.63;;;6.93;;
28958;SDS011;16066;0.000;0.000;2023-08-08T13:36:24;10.87;;;7.80;;
28958;SDS011;16066;0.000;0.000;2023-08-08T13:38:50;12.63;;;8.90;;
28958;SDS011;16066;0.000;0.000;2023-08-08T13:41:15;12.33;;;9.63;;
28958;SDS011;16066;0.000;0.000;2023-08-08T13:43:41;14.97;;;9.63;;
28958;SDS011;16066;0.000;0.000;2023-08-08T13:46:07;18.73;;;12.60;;
28958;SDS011;16066;0.000;0.000;2023-08-08T13:48:34;23.73;;;17.47;;
28958;SDS011;16066;0.000;0.000;2023-08-08T13:51:00;25.10;;;16.20;;
28958;SDS011;16066;0.000;0.000;2023-08-08T13:53:26;27.00;;;19.80;;
28958;SDS011;16066;0.000;0.000;2023-08-08T13:55:52;23.47;;;16.70;;
28958;SDS011;16066;0.000;0.000;2023-08-08T13:58:18;21.30;;;14.80;;
28958;SDS011;16066;0.000;0.000;2023-08-08T14:00:47;29.50;;;19.63;;
28958;SDS011;16066;0.000;0.000;2023-08-08T14:03:15;25.80;;;18.80;;
28958;SDS011;16066;0.000;0.000;2023-08-08T14:05:41;25.43;;;18.43;;
28958;SDS011;16066;0.000;0.000;2023-08-08T14:08:06;26.73;;;18.00;;
28958;SDS011;16066;0.000;0.000;2023-08-08T14:10:33;33.63;;;19.40;;
28958;SDS011;16066;0.000;0.000;2023-08-08T14:13:00;22.47;;;16.87;;
28958;SDS011;16066;0.000;0.000;2023-08-08T14:15:25;31.67;;;21.53;;
28958;SDS011;16066;0.000;0.000;2023-08-08T14:17:51;28.83;;;20.60;;
28958;SDS011;16066;0.000;0.000;2023-08-08T14:20:16;33.30;;;22.40;;
28958;SDS011;16066;0.000;0.000;2023-08-08T14:22:44;30.23;;;22.47;;
28958;SDS011;16066;0.000;0.000;2023-08-08T14:25:11;29.03;;;20.43;;
28958;SDS011;16066;0.000;0.000;2023-08-08T14:27:37;29.00;;;19.67;;
28958;SDS011;16066;0.000;0.000;2023-08-08T14:30:03;29.60;;;20.33;;
28958;SDS011;16066;0.000;0.000;2023-08-08T14:32:29;23.13;;;18.03;;
28958;SDS011;16066;0.000;0.000;2023-08-08T14:34:54;21.77;;;16.57;;
28958;SDS011;16066;0.000;0.000;2023-08-08T14:37:20;29.40;;;16.83;;
28958;SDS011;16066;0.000;0.000;2023-08-08T14:39:46;21.77;;;15.60;;
28958;SDS011;16066;0.000;0.000;2023-08-08T14:42:12;21.00;;;14.80;;
28958;SDS011;16066;0.000;0.000;2023-08-08T14:44:37;19.33;;;12.73;;
28958;SDS011;16066;0.000;0.000;2023-08-08T14:47:03;22.40;;;12.87;;
28958;SDS011;16066;0.000;0.000;2023-08-08T14:49:29;17.23;;;12.37;;
28958;SDS011;16066;0.000;0.000;2023-08-08T14:51:54;18.50;;;12.63;;
28958;SDS011;16066;0.000;0.000;2023-08-08T14:54:20;18.93;;;11.97;;
28958;SDS011;16066;0.000;0.000;2023-08-08T14:56:45;14.23;;;9.93;;
28958;SDS011;16066;0.000;0.000;2023-08-08T14:59:11;16.70;;;9.57;;
28958;SDS011;16066;0.000;0.000;2023-08-08T15:01:36;14.30;;;9.30;;
28958;SDS011;16066;0.000;0.000;2023-08-08T15:04:02;14.27;;;9.33;;
28958;SDS011;16066;0.000;0.000;2023-08-08T15:06:28;12.07;;;8.03;;
28958;SDS011;16066;0.000;0.000;2023-08-08T15:08:53;12.17;;;8.37;;
28958;SDS011;16066;0.000;0.000;2023-08-08T15:11:19;13.63;;;8.77;;
28958;SDS011;16066;0.000;0.000;2023-08-08T15:13:44;15.60;;;8.53;;
28958;SDS011;16066;0.000;0.000;2023-08-08T15:16:10;10.23;;;7.37;;
28958;SDS011;16066;0.000;0.000;2023-08-08T15:18:35;14.80;;;7.90;;
28958;SDS011;16066;0.000;0.000;2023-08-08T15:21:01;12.33;;;7.43;;
28958;SDS011;16066;0.000;0.000;2023-08-08T15:23:27;9.70;;;6.37;;
28958;SDS011;16066;0.000;0.000;2023-08-08T15:25:53;9.13;;;6.90;;
28958;SDS011;16066;0.000;0.000;2023-08-08T15:28:20;13.13;;;7.60;;
28958;SDS011;16066;0.000;0.000;2023-08-08T15:30:45;8.30;;;5.70;;
28958;SDS011;16066;0.000;0.000;2023-08-08T15:33:11;9.03;;;5.53;;
28958;SDS011;16066;0.000;0.000;2023-08-08T15:35:36;8.97;;;6.40;;
28958;SDS011;16066;0.000;0.000;2023-08-08T15:38:02;11.20;;;5.93;;
28958;SDS011;16066;0.000;0.000;2023-08-08T15:40:29;12.70;;;5.33;;
28958;SDS011;16066;0.000;0.000;2023-08-08T15:42:54;8.40;;;5.63;;
28958;SDS011;16066;0.000;0.000;2023-08-08T15:45:20;8.67;;;5.87;;
28958;SDS011;16066;0.000;0.000;2023-08-08T15:47:46;8.20;;;4.77;;
28958;SDS011;16066;0.000;0.000;2023-08-08T15:50:11;6.93;;;5.50;;
28958;SDS011;16066;0.000;0.000;2023-08-08T15:52:37;8.43;;;5.80;;
28958;SDS011;16066;0.000;0.000;2023-08-08T15:55:03;5.93;;;4.63;;
28958;SDS011;16066;0.000;0.000;2023-08-08T15:57:29;6.20;;;4.13;;
28958;SDS011;16066;0.000;0.000;2023-08-08T15:59:56;7.97;;;4.07;;
28958;SDS011;16066;0.000;0.000;2023-08-08T16:02:21;8.33;;;4.50;;
28958;SDS011;16066;0.000;0.000;2023-08-08T16:04:47;7.10;;;4.60;;
28958;SDS011;16066;0.000;0.000;2023-08-08T16:07:13;4.77;;;3.70;;
28958;SDS011;16066;0.000;0.000;2023-08-08T16:09:43;5.13;;;3.90;;
28958;SDS011;16066;0.000;0.000;2023-08-08T16:12:09;6.83;;;3.87;;
28958;SDS011;16066;0.000;0.000;2023-08-08T16:14:35;4.60;;;3.70;;
28958;SDS011;16066;0.000;0.000;2023-08-08T16:17:00;5.70;;;3.70;;
28958;SDS011;16066;0.000;0.000;2023-08-08T16:19:27;9.20;;;3.90;;
28958;SDS011;16066;0.000;0.000;2023-08-08T16:21:53;4.67;;;3.90;;
28958;SDS011;16066;0.000;0.000;2023-08-08T16:24:19;4.60;;;3.30;;
28958;SDS011;16066;0.000;0.000;2023-08-08T16:26:44;5.20;;;3.60;;
28958;SDS011;16066;0.000;0.000;2023-08-08T16:29:10;8.07;;;3.77;;
28958;SDS011;16066;0.000;0.000;2023-08-08T16:31:37;4.00;;;3.07;;
28958;SDS011;16066;0.000;0.000;2023-08-08T16:34:05;3.90;;;3.13;;
28958;SDS011;16066;0.000;0.000;2023-08-08T16:36:31;3.80;;;2.87;;
28958;SDS011;16066;0.000;0.000;2023-08-08T16:38:56;4.77;;;3.30;;
28958;SDS011;16066;0.000;0.000;2023-08-08T16:41:22;4.10;;;3.00;;
28958;SDS011;16066;0.000;0.000;2023-08-08T16:43:52;6.20;;;2.80;;
28958;SDS011;16066;0.000;0.000;2023-08-08T16:46:28;3.77;;;3.10;;
28958;SDS011;16066;0.000;0.000;2023-08-08T16:48:53;6.00;;;3.23;;
28958;SDS011;16066;0.000;0.000;2023-08-08T16:51:19;4.70;;;2.87;;
28958;SDS011;16066;0.000;0.000;2023-08-08T16:53:45;7.97;;;3.17;;
28958;SDS011;16066;0.000;0.000;2023-08-08T16:56:11;4.20;;;2.83;;
28958;SDS011;16066;0.000;0.000;2023-08-08T16:58:36;2.97;;;2.60;;
28958;SDS011;16066;0.000;0.000;2023-08-08T17:01:04;2.83;;;2.20;;
28958;SDS011;16066;0.000;0.000;2023-08-08T17:03:29;3.00;;;2.40;;
28958;SDS011;16066;0.000;0.000;2023-08-08T17:05:55;5.17;;;2.57;;
28958;SDS011;16066;0.000;0.000;2023-08-08T17:08:20;4.10;;;2.70;;
28958;SDS011;16066;0.000;0.000;2023-08-08T17:10:46;4.97;;;2.40;;
28958;SDS011;16066;0.000;0.000;2023-08-08T17:13:12;67.83;;;3.53;;
28958;SDS011;16066;0.000;0.000;2023-08-08T17:15:37;4.60;;;2.37;;
28958;SDS011;16066;0.000;0.000;2023-08-08T17:18:03;3.07;;;2.30;;
28958;SDS011;16066;0.000;0.000;2023-08-08T17:20:29;2.97;;;2.50;;
28958;SDS011;16066;0.000;0.000;2023-08-08T17:22:54;4.10;;;2.90;;
28958;SDS011;16066;0.000;0.000;2023-08-08T17:25:20;3.70;;;2.70;;
28958;SDS011;16066;0.000;0.000;2023-08-08T17:27:46;4.67;;;2.70;;
28958;SDS011;16066;0.000;0.000;2023-08-08T17:30:12;4.33;;;2.50;;
28958;SDS011;16066;0.000;0.000;2023-08-08T17:32:38;4.50;;;2.90;;
28958;SDS011;16066;0.000;0.000;2023-08-08T17:35:03;2.50;;;2.17;;
28958;SDS011;16066;0.000;0.000;2023-08-08T17:37:29;3.37;;;2.70;;
28958;SDS011;16066;0.000;0.000;2023-08-08T17:39:55;4.37;;;2.93;;
28958;SDS011;16066;0.000;0.000;2023-08-08T17:42:21;2.63;;;2.17;;
28958;SDS011;16066;0.000;0.000;2023-08-08T17:44:46;2.67;;;2.40;;
28958;SDS011;16066;0.000;0.000;2023-08-08T17:47:12;4.17;;;2.53;;
28958;SDS011;16066;0.000;0.000;2023-08-08T17:49:39;3.10;;;2.60;;
28958;SDS011;16066;0.000;0.000;2023-08-08T17:52:05;5.27;;;3.00;;
28958;SDS011;16066;0.000;0.000;2023-08-08T17:54:30;2.70;;;2.43;;
28958;SDS011;16066;0.000;0.000;2023-08-08T17:56:56;4.30;;;2.37;;
28958;SDS011;16066;0.000;0.000;2023-08-08T17:59:21;2.83;;;2.00;;
28958;SDS011;16066;0.000;0.000;2023-08-08T18:01:47;4.40;;;2.50;;
28958;SDS011;16066;0.000;0.000;2023-08-08T18:04:12;8.27;;;2.80;;
28958;SDS011;16066;0.000;0.000;2023-08-08T18:06:38;3.07;;;2.57;;
28958;SDS011;16066;0.000;0.000;2023-08-08T18:09:04;4.47;;;2.83;;
28958;SDS011;16066;0.000;0.000;2023-08-08T18:11:30;4.47;;;2.50;;
28958;SDS011;16066;0.000;0.000;2023-08-08T18:14:02;2.83;;;2.30;;
28958;SDS011;16066;0.000;0.000;2023-08-08T18:16:29;3.30;;;2.43;;
28958;SDS011;16066;0.000;0.000;2023-08-08T18:18:54;3.47;;;2.60;;
28958;SDS011;16066;0.000;0.000;2023-08-08T18:21:20;2.90;;;2.27;;
28958;SDS011;16066;0.000;0.000;2023-08-08T18:23:45;2.37;;;2.17;;
28958;SDS011;16066;0.000;0.000;2023-08-08T18:26:11;4.20;;;2.50;;
28958;SDS011;16066;0.000;0.000;2023-08-08T18:28:42;4.73;;;2.50;;
28958;SDS011;16066;0.000;0.000;2023-08-08T18:31:08;3.50;;;2.30;;
28958;SDS011;16066;0.000;0.000;2023-08-08T18:33:33;3.33;;;2.70;;
28958;SDS011;16066;0.000;0.000;2023-08-08T18:35:59;2.83;;;2.63;;
28958;SDS011;16066;0.000;0.000;2023-08-08T18:38:28;4.67;;;2.63;;
28958;SDS011;16066;0.000;0.000;2023-08-08T18:40:54;2.77;;;2.20;;
28958;SDS011;16066;0.000;0.000;2023-08-08T18:43:20;6.93;;;2.50;;
28958;SDS011;16066;0.000;0.000;2023-08-08T18:45:45;4.67;;;2.43;;
28958;SDS011;16066;0.000;0.000;2023-08-08T18:48:11;3.50;;;2.97;;
28958;SDS011;16066;0.000;0.000;2023-08-08T18:50:36;2.90;;;2.40;;
28958;SDS011;16066;0.000;0.000;2023-08-08T18:53:02;3.53;;;2.80;;
28958;SDS011;16066;0.000;0.000;2023-08-08T18:55:27;6.43;;;3.20;;
28958;SDS011;16066;0.000;0.000;2023-08-08T18:57:53;3.10;;;2.67;;
28958;SDS011;16066;0.000;0.000;2023-08-08T19:00:18;4.87;;;2.77;;
28958;SDS011;16066;0.000;0.000;2023-08-08T19:02:44;6.50;;;3.50;;
28958;SDS011;16066;0.000;0.000;2023-08-08T19:05:09;4.80;;;4.30;;
28958;SDS011;16066;0.000;0.000;2023-08-08T19:07:35;5.10;;;3.97;;
28958;SDS011;16066;0.000;0.000;2023-08-08T19:10:00;8.30;;;4.30;;
28958;SDS011;16066;0.000;0.000;2023-08-08T19:12:26;4.90;;;3.67;;
28958;SDS011;16066;0.000;0.000;2023-08-08T19:14:51;5.33;;;3.77;;
28958;SDS011;16066;0.000;0.000;2023-08-08T19:17:17;5.97;;;3.40;;
28958;SDS011;16066;0.000;0.000;2023-08-08T19:19:42;5.00;;;3.53;;
28958;SDS011;16066;0.000;0.000;2023-08-08T19:22:08;3.97;;;3.37;;
28958;SDS011;16066;0.000;0.000;2023-08-08T19:24:33;3.77;;;3.20;;
28958;SDS011;16066;0.000;0.000;2023-08-08T19:26:59;3.20;;;2.80;;
28958;SDS011;16066;0.000;0.000;2023-08-08T19:29:24;3.77;;;2.73;;
28958;SDS011;16066;0.000;0.000;2023-08-08T19:31:50;5.00;;;3.83;;
28958;SDS011;16066;0.000;0.000;2023-08-08T19:34:16;3.83;;;2.87;;
28958;SDS011;16066;0.000;0.000;2023-08-08T19:36:41;3.70;;;3.30;;
28958;SDS011;16066;0.000;0.000;2023-08-08T19:39:07;3.87;;;3.27;;
28958;SDS011;16066;0.000;0.000;2023-08-08T19:41:32;4.83;;;3.13;;
28958;SDS011;16066;0.000;0.000;2023-08-08T19:43:58;4.10;;;2.93;;
28958;SDS011;16066;0.000;0.000;2023-08-08T19:46:23;3.27;;;2.50;;
28958;SDS011;16066;0.000;0.000;2023-08-08T19:48:49;6.03;;;3.27;;
28958;SDS011;16066;0.000;0.000;2023-08-08T19:51:15;4.67;;;2.80;;
28958;SDS011;16066;0.000;0.000;2023-08-08T19:53:41;2.83;;;2.50;;
28958;SDS011;16066;0.000;0.000;2023-08-08T19:56:07;2.83;;;2.20;;
28958;SDS011;16066;0.000;0.000;2023-08-08T19:58:33;4.53;;;2.90;;
28958;SDS011;16066;0.000;0.000;2023-08-08T20:00:59;5.73;;;3.27;;
28958;SDS011;16066;0.000;0.000;2023-08-08T20:03:24;6.03;;;3.30;;
28958;SDS011;16066;0.000;0.000;2023-08-08T20:05:50;4.80;;;2.93;;
28958;SDS011;16066;0.000;0.000;2023-08-08T20:08:16;4.80;;;3.00;;
28958;SDS011;16066;0.000;0.000;2023-08-08T20:10:41;3.00;;;2.70;;
28958;SDS011;16066;0.000;0.000;2023-08-08T20:13:07;3.67;;;2.90;;
28958;SDS011;16066;0.000;0.000;2023-08-08T20:15:35;6.00;;;3.13;;
28958;SDS011;16066;0.000;0.000;2023-08-08T20:18:00;3.70;;;3.10;;
28958;SDS011;16066;0.000;0.000;2023-08-08T20:20:26;4.93;;;3.00;;
28958;SDS011;16066;0.000;0.000;2023-08-08T20:22:52;6.90;;;3.13;;